Airfield :
LOGIN :

Register | Disclaimer

   EN    FR    IT 

 










Legend :    VFR   Marginal VFR   IFR   Intensive IFR   Very Intensive IFR
Visi :
Ceiling :
>= 8 km
>= 3000ft
5 to 8 km
1000 to 3000 ft
1500m to 5 km
500 to 1000 ft
800 to 1500m
200 to 500 ft
< 800m
< 200 ft
Symbols :   Thunderstorms  Fog  Heavy snow  Heavy precipitations  Wind > 20 kt
SIGMETs :     Misc.  Thunderstorms  Icing  Turbulence  Mountain Waves  Volcanic Ashes







- Airport Elevation : 1416 ft
- IATA code : ZRH


LSZH - Zurich

CURRENT METAR :
  • 232350Z 15007KT CAVOK 09/03 Q1016 NOSIG

EXPIRED METARs :
  • 232320Z 11004KT 9999 FEW075 BKN085 08/02 Q1017 NOSIG
  • 232250Z 12004KT 9999 FEW075 BKN085 07/01 Q1017 NOSIG
  • 232220Z 15006KT 9999 FEW075 BKN085 06/01 Q1017 NOSIG
  • 232150Z 15005KT CAVOK 07/01 Q1017 NOSIG
  • 232120Z VRB03KT CAVOK 08/01 Q1017 NOSIG

TAF TAF LSZH
Valid from the 24 at 00:00 until the 25 at 06:00 UTC


232325Z 2400/2506 13004KT 9999 FEW075 BKN085 TX14/2414Z TN02/2405Z TN06/2505Z
PROB40
TEMPO 2418/2506 RA
ATIS : +41 43 816 2295 (DEP) +41 43 816 2294 (ARR)
No reported NOTAMs for that airfield.



MET'MAP, your aeronautical weather chart ! - Copyright ORBIFLY December 2007 - Disclaimer

ORBIFLY MET'MAP TEAM :

Programming & Development : Alexandra Zaïnal
Concept & Development : Baudouin d'Aumeries
Co-Development & Prog : Marc-Olivier Méhu
Technical & hardware support : Manuel Goepfert

Contact : metmap@orbifly.com




SOURCES & CREDITS :

   NOAA